Portada
METAR-TAF:

METAR-TAF

Aeroports :

Fairbanks, Alaska, Estats Units d'Amèrica

latitud: 64-48-14N, longitud: 147-52-34W, altitud: 132 m

Observació

L'informe es va fer fa 21 minuts, a les 01:53 UTC
Vent 6 kt del Oest/Nord-Oest
Temperatura 3°C
Humitat 52%
Pressió 1009 hPa
Visibilitat: 16.1 km
Núvols disperses a una alçada de 4200 ft
Cel cobert a una alçada de 14000 ft

METAR: PAFA 220153Z 30006KT 10SM SCT042 OVC140 03/M06 A2980 RMK AO2 SLP099 T00331061

Hora: 18:14 (02:14 UTC)

Pronòstic

L'informe es va fer fa 2 hores i 36 minuts, a les 23:38 UTC
Pronòstic vàlid del 22 a les 00 UTC al 23 a les 06 UTC
Vent 5 kt amb direcció variable
Visibilitat: 10 km
Cel ennuvolat a una alçada de 4000 ft
Cel cobert a una alçada de 14000 ft
A partir de les 22 a les 1200 UTC
Vent 4 kt amb direcció variable
Visibilitat: 10 km
Núvols disperses a una alçada de 4000 ft
Cel ennuvolat a una alçada de 14000 ft

TAF: PAFA 212338Z 2200/2306 VRB05KT P6SM BKN040 OVC140 FM221200 VRB04KT P6SM SCT040 BKN140

Observacions i pronòstics meteorològics de més de 4000 aeroports (METAR i TAF).

Les estacions disponibles són els punts grocs i vermells al mapa.

Posi el ratolí al punt desitjat per veure el nom de l'estació.

Feu clic per veure les observacions i els pronòstics meteorològics.

Per canviar el mapa: feu clic els botons verds amb una creu de color negre per apropar; al botó verd amb un guió per allunyar la imatge; o en les fletxes verdes per a mapes adjacents.


METAR-TAF: